Terminal Aerodrome Forecast
Issued by NWS Jacksonville, FL

Home | Current Version | Previous Version | Text Only | Print | Product List | Glossary On
Versions: 1 2 3 4 5 6 7 8 9 10 11 12 13 14 15 16 17 18 19 20 21 22 23 24 25 26 27
000
FTUS42 KJAX 172300
TAFGNV
TAF
KGNV 172325Z 1800/1824 07010KT P6SM BKN025
     FM180200 08009KT P6SM OVC015
     FM181200 09012G20KT 5SM -RA BR OVC009
     FM181700 12011KT 2SM RA BR OVC007
     FM182200 17009KT 2SM RA BR OVC007=

USA.gov is the U.S. government's official web portal to all federal, state and local government web resources and services.